createdAt,value
2018-12-21T00:02:10.586Z,7.00
2018-12-21T00:04:39.546Z,7.00
2018-12-21T00:07:08.488Z,7.00
2018-12-21T00:09:37.414Z,6.90
2018-12-21T00:12:06.364Z,6.90
2018-12-21T00:14:35.337Z,6.90
2018-12-21T00:17:04.360Z,6.90
2018-12-21T00:19:33.346Z,6.90
2018-12-21T00:22:02.264Z,6.90
2018-12-21T00:24:31.202Z,6.90
2018-12-21T00:27:00.162Z,6.90
2018-12-21T00:29:29.085Z,6.90
2018-12-21T00:32:03.742Z,6.90
2018-12-21T00:34:38.095Z,6.90
2018-12-21T00:37:12.698Z,6.90
2018-12-21T00:39:47.298Z,6.90
2018-12-21T00:45:11.357Z,7.00
2018-12-21T00:47:40.292Z,7.00
2018-12-21T00:50:10.026Z,7.00
2018-12-21T00:52:38.971Z,6.90
2018-12-21T00:55:07.973Z,7.00
2018-12-21T00:57:36.941Z,6.90
2018-12-21T01:00:11.638Z,7.00
2018-12-21T01:02:40.675Z,7.10
2018-12-21T01:05:09.686Z,7.00
2018-12-21T01:07:38.606Z,6.90
2018-12-21T01:10:08.744Z,6.90
2018-12-21T01:12:37.741Z,6.90
2018-12-21T01:15:06.860Z,7.00
2018-12-21T01:17:35.792Z,6.90
2018-12-21T01:20:07.040Z,6.90
2018-12-21T01:22:35.960Z,6.90
2018-12-21T01:25:05.168Z,6.90
2018-12-21T01:27:34.113Z,6.90
2018-12-21T01:30:04.053Z,7.00
2018-12-21T01:32:32.988Z,6.90
2018-12-21T01:35:01.921Z,6.90
2018-12-21T01:37:30.867Z,7.00
2018-12-21T01:39:59.880Z,6.90
2018-12-21T01:42:28.894Z,6.90
2018-12-21T01:44:57.886Z,6.90
2018-12-21T01:47:26.874Z,7.00
2018-12-21T01:49:55.824Z,6.90
2018-12-21T01:52:24.810Z,6.90
2018-12-21T01:54:53.767Z,6.90
2018-12-21T01:57:22.718Z,7.00
2018-12-21T01:59:51.680Z,6.90
2018-12-21T02:02:20.687Z,7.00
2018-12-21T02:04:49.698Z,7.00
2018-12-21T02:07:18.726Z,7.00
2018-12-21T02:09:47.648Z,7.00
2018-12-21T02:12:16.584Z,7.10
2018-12-21T02:14:45.524Z,7.10
2018-12-21T02:17:14.449Z,7.00
2018-12-21T02:19:43.386Z,7.00
2018-12-21T02:22:12.308Z,7.10
2018-12-21T02:24:41.390Z,7.10
2018-12-21T02:27:10.413Z,7.20
2018-12-21T02:29:39.364Z,7.20
2018-12-21T02:32:08.346Z,7.20
2018-12-21T02:34:37.280Z,7.20
2018-12-21T02:37:06.236Z,7.20
2018-12-21T02:39:35.218Z,7.20
2018-12-21T02:42:04.214Z,7.20
2018-12-21T02:44:33.154Z,7.30
2018-12-21T02:47:02.137Z,7.30
2018-12-21T02:49:31.070Z,7.30
2018-12-21T02:52:05.256Z,7.20
2018-12-21T02:54:30.949Z,7.20
2018-12-21T02:56:59.881Z,7.20
2018-12-21T02:59:28.821Z,7.20
2018-12-21T03:01:57.793Z,7.20
2018-12-21T03:04:26.746Z,7.30
2018-12-21T03:06:55.707Z,7.30
2018-12-21T03:09:24.632Z,7.30
2018-12-21T03:11:53.556Z,7.20
2018-12-21T03:14:22.517Z,7.30
2018-12-21T03:16:51.519Z,7.30
2018-12-21T03:19:20.564Z,7.20
2018-12-21T03:21:49.488Z,7.20
2018-12-21T03:24:18.504Z,7.20
2018-12-21T03:26:47.453Z,7.30
2018-12-21T03:29:16.531Z,7.20
2018-12-21T03:31:45.438Z,7.30
2018-12-21T03:34:14.455Z,7.10
2018-12-21T03:36:43.457Z,7.10
2018-12-21T03:39:12.433Z,7.10
2018-12-21T03:41:41.361Z,7.10
2018-12-21T03:44:10.381Z,7.10
2018-12-21T03:46:39.315Z,7.10
2018-12-21T03:49:08.281Z,7.10
2018-12-21T03:51:37.206Z,7.10
2018-12-21T03:54:06.255Z,7.10
2018-12-21T03:56:35.246Z,7.00
2018-12-21T03:59:04.244Z,7.00
2018-12-21T04:01:33.166Z,7.00
2018-12-21T04:04:02.103Z,7.10
2018-12-21T04:06:31.075Z,7.00
2018-12-21T04:09:00.010Z,7.10
2018-12-21T04:11:29.044Z,7.10
2018-12-21T04:13:57.972Z,7.10
2018-12-21T04:16:26.897Z,7.10
2018-12-21T04:18:55.882Z,7.10
2018-12-21T04:21:24.823Z,7.10
2018-12-21T04:23:53.773Z,7.10
2018-12-21T04:26:22.726Z,7.20
2018-12-21T04:28:51.696Z,7.10
2018-12-21T04:31:20.631Z,7.10
2018-12-21T04:33:49.576Z,7.20
2018-12-21T04:36:18.553Z,7.20
2018-12-21T04:38:47.505Z,7.10
2018-12-21T04:41:16.504Z,7.20
2018-12-21T04:43:45.481Z,7.10
2018-12-21T04:46:14.413Z,7.00
2018-12-21T04:48:43.383Z,6.90
2018-12-21T04:51:12.485Z,6.80
2018-12-21T04:53:41.432Z,6.70
2018-12-21T04:56:10.459Z,6.60
2018-12-21T04:58:39.468Z,6.60
2018-12-21T05:01:08.388Z,6.40
2018-12-21T05:03:37.376Z,6.50
2018-12-21T05:06:06.321Z,6.50
2018-12-21T05:08:35.314Z,6.50
2018-12-21T05:11:04.303Z,6.60
2018-12-21T05:13:33.231Z,6.60
2018-12-21T05:16:02.277Z,6.70
2018-12-21T05:18:31.231Z,6.70
2018-12-21T05:21:00.171Z,6.70
2018-12-21T05:23:29.148Z,6.70
2018-12-21T05:25:58.097Z,6.70
2018-12-21T05:28:27.060Z,6.70
2018-12-21T05:30:55.997Z,6.70
2018-12-21T05:33:24.922Z,6.70
2018-12-21T05:35:53.914Z,6.70
2018-12-21T05:38:22.848Z,6.60
2018-12-21T05:40:51.807Z,6.60
2018-12-21T05:43:20.749Z,6.60
2018-12-21T05:45:49.741Z,6.50
2018-12-21T05:48:18.672Z,6.50
2018-12-21T05:50:47.623Z,6.50
2018-12-21T05:53:16.557Z,6.50
2018-12-21T05:55:45.493Z,6.50
2018-12-21T05:58:14.470Z,6.50
2018-12-21T06:00:43.387Z,6.50
2018-12-21T06:03:12.382Z,6.50
2018-12-21T06:05:41.335Z,6.40
2018-12-21T06:08:10.237Z,6.40
2018-12-21T06:10:39.184Z,6.40
2018-12-21T06:13:08.170Z,6.40
2018-12-21T06:15:37.119Z,6.50
2018-12-21T06:18:06.086Z,6.40
2018-12-21T06:20:35.082Z,6.40
2018-12-21T06:23:09.380Z,6.30
2018-12-21T06:25:34.965Z,6.30
2018-12-21T06:28:03.892Z,6.30
2018-12-21T06:30:32.841Z,6.30
2018-12-21T06:33:01.806Z,6.30
2018-12-21T06:35:30.741Z,6.30
2018-12-21T06:37:59.719Z,6.30
2018-12-21T06:40:28.706Z,6.30
2018-12-21T06:42:57.643Z,6.30
2018-12-21T06:45:26.586Z,6.30
2018-12-21T06:47:55.607Z,6.30
2018-12-21T06:50:24.564Z,6.20
2018-12-21T06:52:53.506Z,6.30
2018-12-21T06:55:22.442Z,6.30
2018-12-21T06:57:51.460Z,6.30
2018-12-21T07:00:20.395Z,6.30
2018-12-21T07:02:49.393Z,6.30
2018-12-21T07:05:18.402Z,6.30
2018-12-21T07:07:47.330Z,6.30
2018-12-21T07:10:16.315Z,6.30
2018-12-21T07:12:46.904Z,6.40
2018-12-21T07:15:16.105Z,6.30
2018-12-21T07:17:45.021Z,6.40
2018-12-21T07:20:13.969Z,6.30
2018-12-21T07:22:42.927Z,6.40
2018-12-21T07:25:11.931Z,6.40
2018-12-21T07:27:40.931Z,6.40
2018-12-21T07:30:10.177Z,6.40
2018-12-21T07:32:39.131Z,6.40
2018-12-21T07:35:09.282Z,6.40
2018-12-21T07:37:38.216Z,6.40
2018-12-21T07:40:09.373Z,6.40
2018-12-21T07:42:38.370Z,6.40
2018-12-21T07:45:08.481Z,6.50
2018-12-21T07:47:37.416Z,6.50
2018-12-21T07:50:06.566Z,6.50
2018-12-21T07:52:35.580Z,6.50
2018-12-21T07:55:06.366Z,6.60
2018-12-21T07:57:35.348Z,6.60
2018-12-21T08:00:07.809Z,6.60
2018-12-21T08:02:36.712Z,6.60
2018-12-21T08:05:06.360Z,6.60
2018-12-21T08:07:35.362Z,6.70
2018-12-21T08:10:09.450Z,6.70
2018-12-21T08:12:38.368Z,6.60
2018-12-21T08:15:07.409Z,6.70
2018-12-21T08:17:36.431Z,6.70
2018-12-21T08:20:06.646Z,6.70
2018-12-21T08:22:35.583Z,6.70
2018-12-21T08:25:05.406Z,6.80
2018-12-21T08:27:34.356Z,6.80
2018-12-21T08:30:04.103Z,6.80
2018-12-21T08:32:33.061Z,6.80
2018-12-21T08:35:01.976Z,6.90
2018-12-21T08:37:30.914Z,6.90
2018-12-21T08:39:59.849Z,6.90
2018-12-21T08:42:28.859Z,6.90
2018-12-21T08:44:57.788Z,6.90
2018-12-21T08:47:26.719Z,6.90
2018-12-21T08:49:55.669Z,6.90
2018-12-21T08:52:24.598Z,6.90
2018-12-21T08:54:53.541Z,6.90
2018-12-21T08:57:22.468Z,7.00
2018-12-21T08:59:51.484Z,6.90
2018-12-21T09:02:21.178Z,7.00
2018-12-21T09:04:50.292Z,7.00
2018-12-21T09:07:19.224Z,7.00
2018-12-21T09:09:48.146Z,7.00
2018-12-21T09:12:17.085Z,7.00
2018-12-21T09:14:46.021Z,7.00
2018-12-21T09:17:14.945Z,7.00
2018-12-21T09:19:43.925Z,7.00
2018-12-21T09:22:12.847Z,7.00
2018-12-21T09:24:41.783Z,7.00
2018-12-21T09:27:10.729Z,7.00
2018-12-21T09:29:39.664Z,7.00
2018-12-21T09:32:08.587Z,7.00
2018-12-21T09:34:37.550Z,7.00
2018-12-21T09:37:06.554Z,7.00
2018-12-21T09:39:35.530Z,7.00
2018-12-21T09:42:04.484Z,7.10
2018-12-21T09:44:33.403Z,7.00
2018-12-21T09:47:02.353Z,7.10
2018-12-21T09:49:31.293Z,7.10
2018-12-21T09:52:00.237Z,7.10
2018-12-21T09:54:29.231Z,7.10
2018-12-21T09:56:58.308Z,7.10
2018-12-21T09:59:27.285Z,7.10
2018-12-21T10:01:56.314Z,7.20
2018-12-21T10:04:25.312Z,7.20
2018-12-21T10:06:54.240Z,7.20
2018-12-21T10:09:23.196Z,7.10
2018-12-21T10:11:52.152Z,7.10
2018-12-21T10:14:21.085Z,7.20
2018-12-21T10:16:50.113Z,7.20
2018-12-21T10:19:19.018Z,7.20
2018-12-21T10:21:47.999Z,7.10
2018-12-21T10:24:18.574Z,7.20
2018-12-21T10:26:47.820Z,7.20
2018-12-21T10:29:16.750Z,7.20
2018-12-21T10:31:45.678Z,7.20
2018-12-21T10:34:14.609Z,7.30
2018-12-21T10:36:43.553Z,7.30
2018-12-21T10:39:12.504Z,7.30
2018-12-21T10:41:41.484Z,7.40
2018-12-21T10:44:10.421Z,7.40
2018-12-21T10:46:39.368Z,7.40
2018-12-21T10:49:08.322Z,7.40
2018-12-21T10:51:37.246Z,7.40
2018-12-21T10:54:06.181Z,7.40
2018-12-21T10:56:35.146Z,7.40
2018-12-21T10:59:04.136Z,7.60
2018-12-21T11:01:33.068Z,7.50
2018-12-21T11:04:02.030Z,7.50
2018-12-21T11:06:30.970Z,7.60
2018-12-21T11:08:59.899Z,7.60
2018-12-21T11:11:28.886Z,7.70
2018-12-21T11:13:57.879Z,7.70
2018-12-21T11:16:26.818Z,7.80
2018-12-21T11:18:56.380Z,7.80
2018-12-21T11:21:25.302Z,7.90
2018-12-21T11:23:54.241Z,7.90
2018-12-21T11:26:23.201Z,8.00
2018-12-21T11:28:52.224Z,8.00
2018-12-21T11:31:21.148Z,8.00
2018-12-21T11:33:50.108Z,8.10
2018-12-21T11:36:19.119Z,8.10
2018-12-21T11:38:48.134Z,8.10
2018-12-21T11:41:17.070Z,8.20
2018-12-21T11:43:46.033Z,8.30
2018-12-21T11:46:14.954Z,8.30
2018-12-21T11:48:43.876Z,8.30
2018-12-21T11:51:12.895Z,8.40
2018-12-21T11:53:41.862Z,8.50
2018-12-21T11:56:10.830Z,8.60
2018-12-21T11:58:39.766Z,8.60
2018-12-21T12:01:08.773Z,8.60
2018-12-21T12:03:37.681Z,8.60
2018-12-21T12:06:06.616Z,8.70
2018-12-21T12:08:35.549Z,8.80
2018-12-21T12:11:04.597Z,8.80
2018-12-21T12:13:33.531Z,8.90
2018-12-21T12:16:02.447Z,8.90
2018-12-21T12:18:31.385Z,8.90
2018-12-21T12:21:00.363Z,9.00
2018-12-21T12:23:29.377Z,9.00
2018-12-21T12:25:58.728Z,8.90
2018-12-21T12:28:27.648Z,8.90
2018-12-21T12:30:56.618Z,9.00
2018-12-21T12:33:25.552Z,9.00
2018-12-21T12:35:54.513Z,8.90
2018-12-21T12:38:23.450Z,8.90
2018-12-21T12:40:52.380Z,8.90
2018-12-21T12:43:21.311Z,8.90
2018-12-21T12:45:50.291Z,8.90
2018-12-21T12:48:19.223Z,8.90
2018-12-21T12:50:48.219Z,8.90
2018-12-21T12:53:17.150Z,8.90
2018-12-21T12:55:46.191Z,8.90
2018-12-21T12:58:15.126Z,8.90
2018-12-21T13:00:44.061Z,8.90
2018-12-21T13:03:13.094Z,8.90
2018-12-21T13:08:17.241Z,9.00
2018-12-21T13:10:46.192Z,8.90
2018-12-21T13:13:15.160Z,8.90
2018-12-21T13:15:44.273Z,8.90
2018-12-21T13:18:13.186Z,8.90
2018-12-21T13:20:42.131Z,8.90
2018-12-21T13:23:11.151Z,9.00
2018-12-21T13:25:40.124Z,8.90
2018-12-21T13:28:09.145Z,8.90
2018-12-21T13:30:38.146Z,8.90
2018-12-21T13:33:07.091Z,8.90
2018-12-21T13:35:36.033Z,8.90
2018-12-21T13:38:05.008Z,9.00
2018-12-21T13:40:33.955Z,9.00
2018-12-21T13:43:02.875Z,9.00
2018-12-21T13:45:31.872Z,9.00
2018-12-21T13:48:00.788Z,9.00
2018-12-21T13:50:29.738Z,9.00
2018-12-21T13:52:58.831Z,9.00
2018-12-21T13:55:27.736Z,9.00
2018-12-21T13:57:56.720Z,9.00
2018-12-21T14:00:25.779Z,9.10
2018-12-21T14:02:54.709Z,9.00
2018-12-21T14:05:23.635Z,9.10
2018-12-21T14:07:52.604Z,9.10
2018-12-21T14:10:21.544Z,9.10
2018-12-21T14:12:50.536Z,9.10
2018-12-21T14:15:19.469Z,9.00
2018-12-21T14:17:48.622Z,9.10
2018-12-21T14:20:17.706Z,9.00
2018-12-21T14:22:46.690Z,9.10
2018-12-21T14:25:15.703Z,9.00
2018-12-21T14:27:44.636Z,9.10
2018-12-21T14:30:13.581Z,9.00
2018-12-21T14:32:42.534Z,9.00
2018-12-21T14:35:11.540Z,9.00
2018-12-21T14:37:40.546Z,9.10
2018-12-21T14:40:09.503Z,9.10
2018-12-21T14:42:38.427Z,9.20
2018-12-21T14:45:07.509Z,9.10
2018-12-21T14:47:36.459Z,9.20
2018-12-21T14:50:07.688Z,9.20
2018-12-21T14:52:36.649Z,9.20
2018-12-21T14:55:06.679Z,9.20
2018-12-21T14:57:35.613Z,9.20
2018-12-21T15:00:10.356Z,9.20
2018-12-21T15:02:39.336Z,9.20
2018-12-21T15:05:08.680Z,9.20
2018-12-21T15:07:37.649Z,9.20
2018-12-21T15:10:09.165Z,9.20
2018-12-21T15:12:38.087Z,9.30
2018-12-21T15:15:07.296Z,9.30
2018-12-21T15:17:36.276Z,9.30
2018-12-21T15:20:07.580Z,9.30
2018-12-21T15:22:36.568Z,9.40
2018-12-21T15:25:05.755Z,9.40
2018-12-21T15:27:34.761Z,9.60
2018-12-21T15:30:05.511Z,9.50
2018-12-21T15:32:34.517Z,9.50
2018-12-21T15:35:03.798Z,9.50
2018-12-21T15:37:32.735Z,9.60
2018-12-21T15:40:01.648Z,9.60
2018-12-21T15:42:30.592Z,9.60
2018-12-21T15:44:59.521Z,9.60
2018-12-21T15:47:28.497Z,9.60
2018-12-21T15:49:57.452Z,9.70
2018-12-21T15:52:26.439Z,9.70
2018-12-21T15:54:55.532Z,9.60
2018-12-21T15:57:24.475Z,9.70
2018-12-21T15:59:53.533Z,9.80
2018-12-21T16:02:22.981Z,9.70
2018-12-21T16:04:51.978Z,9.70
2018-12-21T16:07:21.001Z,9.80
2018-12-21T16:13:02.041Z,9.80
2018-12-21T16:15:31.040Z,9.80
2018-12-21T16:18:00.027Z,9.80
2018-12-21T16:20:29.979Z,9.80
2018-12-21T16:22:58.923Z,9.90
2018-12-21T16:25:27.984Z,9.90
2018-12-21T16:27:56.974Z,9.90
2018-12-21T16:30:26.075Z,10.00
2018-12-21T16:32:55.010Z,10.00
2018-12-21T16:35:24.061Z,10.00
2018-12-21T16:37:53.001Z,10.00
2018-12-21T16:40:21.988Z,10.10
2018-12-21T16:42:50.945Z,10.00
2018-12-21T16:45:19.859Z,10.00
2018-12-21T16:47:48.830Z,10.00
2018-12-21T16:50:17.829Z,10.10
2018-12-21T16:52:46.747Z,10.10
2018-12-21T16:55:15.714Z,10.10
2018-12-21T16:57:45.270Z,10.20
2018-12-21T17:00:14.815Z,10.10
2018-12-21T17:02:43.858Z,10.20
2018-12-21T17:05:12.831Z,10.20
2018-12-21T17:07:41.844Z,10.20
2018-12-21T17:10:11.959Z,10.20
2018-12-21T17:12:40.982Z,10.20
2018-12-21T17:15:10.770Z,10.20
2018-12-21T17:17:39.732Z,10.30
2018-12-21T17:20:09.496Z,10.20
2018-12-21T17:22:38.496Z,10.30
2018-12-21T17:25:08.614Z,10.30
2018-12-21T17:27:37.677Z,10.40
2018-12-21T17:30:09.499Z,10.40
2018-12-21T17:32:38.538Z,10.50
2018-12-21T17:35:07.856Z,10.50
2018-12-21T17:37:38.743Z,10.60
2018-12-21T17:40:08.643Z,10.60
2018-12-21T17:42:37.773Z,10.50
2018-12-21T17:45:08.160Z,10.60
2018-12-21T17:47:37.223Z,10.50
2018-12-21T17:50:07.697Z,10.50
2018-12-21T17:52:36.821Z,10.50
2018-12-21T17:55:07.005Z,10.50
2018-12-21T17:57:36.067Z,10.50
2018-12-21T18:00:11.515Z,10.50
2018-12-21T18:02:40.737Z,10.60
2018-12-21T18:05:09.736Z,10.60
2018-12-21T18:07:38.795Z,10.50
2018-12-21T18:10:11.266Z,10.50
2018-12-21T18:12:40.381Z,10.50
2018-12-21T18:15:10.134Z,10.50
2018-12-21T18:17:39.083Z,10.50
2018-12-21T18:20:10.068Z,10.50
2018-12-21T18:22:40.126Z,10.50
2018-12-21T18:25:12.588Z,10.50
2018-12-21T18:27:41.748Z,10.60
2018-12-21T18:32:55.595Z,10.60
2018-12-21T18:35:24.625Z,10.60
2018-12-21T18:37:53.674Z,10.60
2018-12-21T18:40:22.749Z,10.60
2018-12-21T18:42:52.060Z,10.60
2018-12-21T18:45:21.217Z,10.60
2018-12-21T18:47:50.409Z,10.60
2018-12-21T18:50:19.464Z,10.60
2018-12-21T18:52:48.487Z,10.60
2018-12-21T18:55:17.772Z,10.60
2018-12-21T18:57:46.968Z,10.60
2018-12-21T19:00:16.429Z,10.60
2018-12-21T19:02:45.629Z,10.60
2018-12-21T19:05:14.691Z,10.70
2018-12-21T19:07:43.829Z,10.70
2018-12-21T19:10:12.820Z,10.70
2018-12-21T19:15:49.919Z,10.60
2018-12-21T19:18:19.036Z,10.70
2018-12-21T19:20:48.078Z,10.70
2018-12-21T19:23:17.961Z,10.60
2018-12-21T19:25:46.967Z,10.60
2018-12-21T19:28:16.171Z,10.60
2018-12-21T19:30:45.216Z,10.70
2018-12-21T19:33:14.247Z,10.70
2018-12-21T19:35:43.278Z,10.60
2018-12-21T19:38:12.294Z,10.60
2018-12-21T19:40:41.233Z,10.60
2018-12-21T19:43:11.227Z,10.60
2018-12-21T19:45:40.150Z,10.60
2018-12-21T19:48:09.139Z,10.70
2018-12-21T19:50:38.122Z,10.70
2018-12-21T19:53:07.092Z,10.70
2018-12-21T19:55:41.859Z,10.70
2018-12-21T19:58:10.843Z,10.80
2018-12-21T20:00:39.937Z,10.80
2018-12-21T20:03:08.945Z,10.80
2018-12-21T20:05:37.914Z,10.90
2018-12-21T20:08:06.957Z,10.90
2018-12-21T20:10:35.973Z,11.00
2018-12-21T20:13:05.039Z,11.00
2018-12-21T20:15:34.016Z,11.00
2018-12-21T20:18:06.941Z,11.10
2018-12-21T20:20:35.898Z,11.00
2018-12-21T20:23:04.888Z,11.10
2018-12-21T20:25:33.936Z,11.10
2018-12-21T20:28:02.915Z,11.10
2018-12-21T20:30:32.994Z,11.00
2018-12-21T20:33:01.970Z,11.10
2018-12-21T20:35:30.974Z,11.10
2018-12-21T20:38:00.499Z,11.10
2018-12-21T20:40:29.584Z,11.00
2018-12-21T20:42:58.718Z,11.00
2018-12-21T20:45:27.747Z,11.10
2018-12-21T20:47:57.396Z,11.10
2018-12-21T20:50:26.413Z,11.10
2018-12-21T20:52:55.417Z,11.00
2018-12-21T20:55:25.409Z,11.00
2018-12-21T21:00:30.691Z,10.90
2018-12-21T21:02:59.611Z,10.80
2018-12-21T21:05:28.567Z,10.80
2018-12-21T21:07:57.544Z,10.90
2018-12-21T21:10:26.493Z,10.80
2018-12-21T21:12:55.412Z,10.70
2018-12-21T21:15:24.357Z,10.70
2018-12-21T21:17:53.315Z,10.60
2018-12-21T21:20:22.348Z,10.60
2018-12-21T21:22:51.288Z,10.60
2018-12-21T21:25:20.224Z,10.60
2018-12-21T21:27:49.180Z,10.70
2018-12-21T21:30:19.506Z,10.70
2018-12-21T21:39:06.470Z,10.80
2018-12-21T21:41:35.545Z,10.70
2018-12-21T21:44:04.647Z,10.70
2018-12-21T21:46:33.628Z,10.70
2018-12-21T21:49:02.554Z,10.80
2018-12-21T21:51:31.637Z,10.70
2018-12-21T21:54:00.754Z,10.70
2018-12-21T21:56:34.540Z,10.70
2018-12-21T21:59:03.496Z,10.60
2018-12-21T22:01:32.573Z,10.60
2018-12-21T22:04:01.629Z,10.70
2018-12-21T22:06:30.750Z,10.70
2018-12-21T22:08:59.722Z,10.70
2018-12-21T22:11:28.763Z,10.70
2018-12-21T22:13:57.811Z,10.70
2018-12-21T22:16:26.803Z,10.70
2018-12-21T22:18:55.739Z,10.70
2018-12-21T22:21:24.699Z,10.70
2018-12-21T22:23:53.681Z,10.70
2018-12-21T22:26:22.703Z,10.70
2018-12-21T22:28:51.754Z,10.60
2018-12-21T22:31:20.771Z,10.60
2018-12-21T22:33:49.733Z,10.70
2018-12-21T22:36:18.755Z,10.60
2018-12-21T22:38:48.655Z,10.60
2018-12-21T22:41:17.703Z,10.60
2018-12-21T22:43:46.669Z,10.70
2018-12-21T22:46:15.679Z,10.60
2018-12-21T22:48:44.684Z,10.60
2018-12-21T22:51:13.717Z,10.60
2018-12-21T22:53:42.664Z,10.50
2018-12-21T22:56:11.680Z,10.50
2018-12-21T22:58:40.752Z,10.50
2018-12-21T23:01:09.805Z,10.50
2018-12-21T23:03:38.791Z,10.50
2018-12-21T23:06:07.824Z,10.50
2018-12-21T23:08:36.875Z,10.40
2018-12-21T23:11:05.944Z,10.40
2018-12-21T23:13:34.977Z,10.40
2018-12-21T23:16:03.987Z,10.40
2018-12-21T23:18:32.964Z,10.40
2018-12-21T23:21:01.966Z,10.30
2018-12-21T23:23:31.014Z,10.40
2018-12-21T23:26:00.060Z,10.40
2018-12-21T23:28:29.013Z,10.40
2018-12-21T23:30:58.025Z,10.40
2018-12-21T23:33:27.065Z,10.40
2018-12-21T23:35:56.033Z,10.30
2018-12-21T23:38:25.010Z,10.30
2018-12-21T23:40:54.002Z,10.30
2018-12-21T23:43:22.954Z,10.30
2018-12-21T23:45:51.931Z,10.20
2018-12-21T23:48:20.939Z,10.20
2018-12-21T23:50:53.703Z,10.20
2018-12-21T23:53:22.735Z,10.20
2018-12-21T23:55:51.699Z,10.20
2018-12-21T23:58:20.696Z,10.30
